createdAt,value
2022-12-15T00:02:30.931Z,20.77
2022-12-15T00:05:16.682Z,20.33
2022-12-15T00:08:02.989Z,21.80
2022-12-15T00:10:48.690Z,20.58
2022-12-15T00:13:34.985Z,19.80
2022-12-15T00:16:24.161Z,21.05
2022-12-15T00:19:09.785Z,19.20
2022-12-15T00:21:55.728Z,21.25
2022-12-15T00:24:41.931Z,20.38
2022-12-15T00:27:27.220Z,23.40
2022-12-15T00:30:12.778Z,21.65
2022-12-15T00:32:59.333Z,20.73
2022-12-15T00:35:44.608Z,17.92
2022-12-15T00:38:32.282Z,17.70
2022-12-15T00:41:00.609Z,21.15
2022-12-15T00:43:29.386Z,18.25
2022-12-15T00:46:15.276Z,21.02
2022-12-15T00:48:44.930Z,21.02
2022-12-15T00:51:12.738Z,21.48
2022-12-15T00:53:58.193Z,18.35
2022-12-15T00:56:43.668Z,18.38
2022-12-15T00:59:29.201Z,19.80
2022-12-15T01:02:15.328Z,21.63
2022-12-15T01:05:02.203Z,20.25
2022-12-15T01:07:49.781Z,17.83
2022-12-15T01:10:36.168Z,23.02
2022-12-15T01:13:22.123Z,21.73
2022-12-15T01:16:07.932Z,19.17
2022-12-15T01:18:56.790Z,19.38
2022-12-15T01:21:26.799Z,19.95
2022-12-15T01:23:54.676Z,21.13
2022-12-15T01:26:22.461Z,21.45
2022-12-15T01:28:50.057Z,20.73
2022-12-15T01:31:17.688Z,19.58
2022-12-15T01:33:45.298Z,23.80
2022-12-15T01:36:14.292Z,20.50
2022-12-15T01:38:43.888Z,24.30
2022-12-15T01:41:12.457Z,19.43
2022-12-15T01:43:41.896Z,23.38
2022-12-15T01:46:12.066Z,19.23
2022-12-15T01:48:43.979Z,23.43
2022-12-15T01:51:22.860Z,24.17
2022-12-15T01:53:56.751Z,21.83
2022-12-15T01:56:36.835Z,21.83
2022-12-15T01:59:09.752Z,19.60
2022-12-15T02:01:37.657Z,24.23
2022-12-15T02:04:07.735Z,22.38
2022-12-15T02:06:38.002Z,23.42
2022-12-15T02:09:09.163Z,20.58
2022-12-15T02:11:50.673Z,24.52
2022-12-15T02:14:26.660Z,22.30
2022-12-15T02:17:14.756Z,22.65
2022-12-15T02:20:23.239Z,20.75
2022-12-15T02:23:09.743Z,23.92
2022-12-15T02:25:56.743Z,22.27
2022-12-15T02:28:38.320Z,23.52
2022-12-15T02:31:27.772Z,20.30
2022-12-15T02:34:01.604Z,21.25
2022-12-15T02:36:36.744Z,21.25
2022-12-15T02:39:06.261Z,23.90
2022-12-15T02:41:37.627Z,22.33
2022-12-15T02:44:12.232Z,23.73
2022-12-15T02:46:56.772Z,23.65
2022-12-15T02:49:38.204Z,20.98
2022-12-15T02:52:18.015Z,19.13
2022-12-15T02:55:05.914Z,22.90
2022-12-15T02:57:40.322Z,23.85
2022-12-15T03:00:10.981Z,19.42
2022-12-15T03:02:43.755Z,23.58
2022-12-15T03:05:16.757Z,21.38
2022-12-15T03:07:45.738Z,20.85
2022-12-15T03:10:19.757Z,19.67
2022-12-15T03:12:47.859Z,21.98
2022-12-15T03:15:15.577Z,21.77
2022-12-15T03:17:45.833Z,20.30
2022-12-15T03:20:14.739Z,23.40
2022-12-15T03:22:42.319Z,20.35
2022-12-15T03:25:10.757Z,22.75
2022-12-15T03:28:03.755Z,19.30
2022-12-15T03:30:35.832Z,22.05
2022-12-15T03:33:05.842Z,26.20
2022-12-15T03:35:34.209Z,20.85
2022-12-15T03:38:03.751Z,25.00
2022-12-15T03:40:31.395Z,21.75
2022-12-15T03:42:59.288Z,18.88
2022-12-15T03:45:29.519Z,24.90
2022-12-15T03:47:58.828Z,24.10
2022-12-15T03:50:31.338Z,23.52
2022-12-15T03:53:00.718Z,23.50
2022-12-15T03:55:29.126Z,20.33
2022-12-15T03:57:57.050Z,21.73
2022-12-15T04:00:25.879Z,21.55
2022-12-15T04:02:54.066Z,21.58
2022-12-15T04:05:25.630Z,21.25
2022-12-15T04:07:57.740Z,20.83
2022-12-15T04:10:51.744Z,23.33
2022-12-15T04:13:21.464Z,22.13
2022-12-15T04:15:49.746Z,22.65
2022-12-15T04:18:18.284Z,22.60
2022-12-15T04:20:50.191Z,24.60
2022-12-15T04:23:20.861Z,24.67
2022-12-15T04:26:09.528Z,21.02
2022-12-15T04:28:54.926Z,23.92
2022-12-15T04:31:47.374Z,24.73
2022-12-15T04:34:36.311Z,26.13
2022-12-15T04:37:21.688Z,27.63
2022-12-15T04:40:10.414Z,24.40
2022-12-15T04:43:00.438Z,22.15
2022-12-15T04:45:45.547Z,25.17
2022-12-15T04:48:31.562Z,27.35
2022-12-15T04:51:17.670Z,24.30
2022-12-15T04:54:03.737Z,25.17
2022-12-15T04:56:50.980Z,25.38
2022-12-15T04:59:36.684Z,26.02
2022-12-15T05:02:23.791Z,27.15
2022-12-15T05:05:09.729Z,24.65
2022-12-15T05:07:55.239Z,24.80
2022-12-15T05:11:05.735Z,23.00
2022-12-15T05:13:55.941Z,26.88
2022-12-15T05:16:42.771Z,23.02
2022-12-15T05:19:32.758Z,21.85
2022-12-15T05:22:20.793Z,22.42
2022-12-15T05:25:05.883Z,25.48
2022-12-15T05:27:52.465Z,27.17
2022-12-15T05:30:38.962Z,27.70
2022-12-15T05:33:06.941Z,27.65
2022-12-15T05:35:35.329Z,29.85
2022-12-15T05:38:03.136Z,28.00
2022-12-15T05:40:31.748Z,23.30
2022-12-15T05:43:00.202Z,23.10
2022-12-15T05:45:29.425Z,20.15
2022-12-15T05:47:57.752Z,24.90
2022-12-15T05:50:25.398Z,23.55
2022-12-15T05:52:53.049Z,24.20
2022-12-15T05:55:20.932Z,23.58
2022-12-15T05:57:52.562Z,23.02
2022-12-15T06:00:20.746Z,22.80
2022-12-15T06:02:50.771Z,24.30
2022-12-15T06:05:18.719Z,22.35
2022-12-15T06:07:46.387Z,22.17
2022-12-15T06:10:14.006Z,23.90
2022-12-15T06:12:43.753Z,23.05
2022-12-15T06:15:13.167Z,26.20
2022-12-15T06:17:40.829Z,23.92
2022-12-15T06:20:14.735Z,23.55
2022-12-15T06:22:49.605Z,24.20
2022-12-15T06:25:18.748Z,25.02
2022-12-15T06:27:46.836Z,23.80
2022-12-15T06:30:18.170Z,24.23
2022-12-15T06:32:49.894Z,24.35
2022-12-15T06:35:19.608Z,26.20
2022-12-15T06:37:47.271Z,23.15
2022-12-15T06:40:39.441Z,25.48
2022-12-15T06:43:07.745Z,23.05
2022-12-15T06:45:37.198Z,22.80
2022-12-15T06:48:30.750Z,22.25
2022-12-15T06:51:14.956Z,24.17
2022-12-15T06:53:48.673Z,24.13
2022-12-15T06:56:44.646Z,24.23
2022-12-15T06:59:13.547Z,23.60
2022-12-15T07:01:41.580Z,22.17
2022-12-15T07:04:12.185Z,23.73
2022-12-15T07:06:42.237Z,25.10
2022-12-15T07:09:16.744Z,24.17
2022-12-15T07:11:45.102Z,22.17
2022-12-15T07:14:13.427Z,25.77
2022-12-15T07:16:41.419Z,23.00
2022-12-15T07:19:12.681Z,26.08
2022-12-15T07:21:42.743Z,23.13
2022-12-15T07:24:12.795Z,21.60
2022-12-15T07:26:40.664Z,24.63
2022-12-15T07:29:09.452Z,21.02
2022-12-15T07:31:37.884Z,21.98
2022-12-15T07:34:05.549Z,23.25
2022-12-15T07:36:33.163Z,25.60
2022-12-15T07:39:04.767Z,22.77
2022-12-15T07:41:32.620Z,21.63
2022-12-15T07:44:00.306Z,24.55
2022-12-15T07:46:29.080Z,20.38
2022-12-15T07:48:56.851Z,23.63
2022-12-15T07:51:24.631Z,21.52
2022-12-15T07:53:54.712Z,24.40
2022-12-15T07:56:24.728Z,28.00
2022-12-15T07:58:54.069Z,22.42
2022-12-15T08:01:21.762Z,22.38
2022-12-15T08:03:50.054Z,24.10
2022-12-15T08:06:18.846Z,21.80
2022-12-15T08:08:50.802Z,24.45
2022-12-15T08:11:21.104Z,22.10
2022-12-15T08:14:12.024Z,24.83
2022-12-15T08:16:39.841Z,21.58
2022-12-15T08:19:11.594Z,26.33
2022-12-15T08:24:08.597Z,21.90
2022-12-15T08:26:38.128Z,28.83
2022-12-15T08:31:57.305Z,25.55
2022-12-15T08:34:25.072Z,29.48
2022-12-15T08:36:52.701Z,31.67
2022-12-15T08:39:20.403Z,24.88
2022-12-15T08:41:48.541Z,26.42
2022-12-15T08:44:17.701Z,24.63
2022-12-15T08:46:45.595Z,25.67
2022-12-15T08:49:17.911Z,25.60
2022-12-15T08:51:50.030Z,26.83
2022-12-15T08:54:19.741Z,27.27
2022-12-15T08:56:47.359Z,26.20
2022-12-15T08:59:15.311Z,28.40
2022-12-15T09:01:45.108Z,26.95
2022-12-15T09:04:15.843Z,27.08
2022-12-15T09:06:44.023Z,26.70
2022-12-15T09:09:16.250Z,28.40
2022-12-15T09:11:45.407Z,26.05
2022-12-15T09:14:13.239Z,28.38
2022-12-15T09:16:42.008Z,32.83
2022-12-15T09:19:11.524Z,28.10
2022-12-15T09:21:40.723Z,29.50
2022-12-15T09:24:08.664Z,29.15
2022-12-15T09:29:27.874Z,33.08
2022-12-15T09:31:55.453Z,29.85
2022-12-15T09:34:24.807Z,34.45
2022-12-15T09:36:52.526Z,35.28
2022-12-15T09:39:21.885Z,32.35
2022-12-15T09:41:54.709Z,32.22
2022-12-15T09:44:48.759Z,31.75
2022-12-15T09:47:24.833Z,36.75
2022-12-15T09:49:57.597Z,30.45
2022-12-15T09:52:28.947Z,32.08
2022-12-15T09:54:58.164Z,36.00
2022-12-15T09:57:38.294Z,34.88
2022-12-15T10:00:14.837Z,33.42
2022-12-15T10:03:18.456Z,33.60
2022-12-15T10:08:50.996Z,34.28
2022-12-15T10:11:44.691Z,32.70
2022-12-15T10:14:27.585Z,35.97
2022-12-15T10:17:06.268Z,33.28
2022-12-15T10:19:40.713Z,33.55
2022-12-15T10:22:14.963Z,34.20
2022-12-15T10:27:51.785Z,38.63
2022-12-15T10:30:23.153Z,37.15
2022-12-15T10:32:58.252Z,35.85
2022-12-15T10:35:29.539Z,38.70
2022-12-15T10:38:06.731Z,36.47
2022-12-15T10:40:50.415Z,36.38
2022-12-15T10:43:26.705Z,35.53
2022-12-15T10:46:05.989Z,34.53
2022-12-15T10:48:33.735Z,37.05
2022-12-15T10:51:21.287Z,36.17
2022-12-15T10:53:53.130Z,35.00
2022-12-15T10:56:30.649Z,35.08
2022-12-15T10:59:03.844Z,37.28
2022-12-15T11:01:33.896Z,36.38
2022-12-15T11:04:02.105Z,36.40
2022-12-15T11:06:32.267Z,32.60
2022-12-15T11:09:10.720Z,33.70
2022-12-15T11:12:11.857Z,36.10
2022-12-15T11:18:06.324Z,36.70
2022-12-15T11:20:38.380Z,35.95
2022-12-15T11:23:12.964Z,35.95
2022-12-15T11:25:46.012Z,32.47
2022-12-15T11:28:19.729Z,34.13
2022-12-15T11:30:54.842Z,33.35
2022-12-15T11:33:23.393Z,34.35
2022-12-15T11:36:07.724Z,30.23
2022-12-15T11:38:43.562Z,34.05
2022-12-15T11:41:24.037Z,31.65
2022-12-15T11:44:09.725Z,37.90
2022-12-15T11:46:49.390Z,32.75
2022-12-15T11:50:02.634Z,31.95
2022-12-15T11:53:08.641Z,33.60
2022-12-15T11:55:48.366Z,34.22
2022-12-15T11:58:53.724Z,31.10
2022-12-15T12:01:51.648Z,30.02
2022-12-15T12:04:25.897Z,32.10
2022-12-15T12:07:08.146Z,35.53
2022-12-15T12:09:37.825Z,31.45
2022-12-15T12:12:16.192Z,30.75
2022-12-15T12:14:57.131Z,35.00
2022-12-15T12:17:40.011Z,30.15
2022-12-15T12:20:16.304Z,33.58
2022-12-15T12:22:50.648Z,35.80
2022-12-15T12:25:21.723Z,32.15
2022-12-15T12:27:56.948Z,32.83
2022-12-15T12:30:28.592Z,32.88
2022-12-15T12:33:04.903Z,31.52
2022-12-15T12:35:39.689Z,33.80
2022-12-15T12:38:10.498Z,32.78
2022-12-15T12:40:49.831Z,30.55
2022-12-15T12:43:32.963Z,32.97
2022-12-15T12:46:07.921Z,30.98
2022-12-15T12:48:39.843Z,32.45
2022-12-15T12:51:24.212Z,32.88
2022-12-15T12:53:52.784Z,30.23
2022-12-15T12:56:33.275Z,31.55
2022-12-15T12:59:01.716Z,31.13
2022-12-15T13:01:34.930Z,32.75
2022-12-15T13:04:08.873Z,29.98
2022-12-15T13:07:04.617Z,31.52
2022-12-15T13:09:40.597Z,31.77
2022-12-15T13:12:53.492Z,29.95
2022-12-15T13:15:39.718Z,29.30
2022-12-15T13:18:22.552Z,33.38
2022-12-15T13:20:54.481Z,29.95
2022-12-15T13:23:42.094Z,32.75
2022-12-15T13:26:15.014Z,28.20
2022-12-15T13:28:50.628Z,35.08
2022-12-15T13:31:27.472Z,27.48
2022-12-15T13:34:04.262Z,32.13
2022-12-15T13:37:00.249Z,32.17
2022-12-15T13:39:59.858Z,30.60
2022-12-15T13:42:41.477Z,31.00
2022-12-15T13:45:48.643Z,29.58
2022-12-15T13:48:38.067Z,34.63
2022-12-15T13:51:31.245Z,32.80
2022-12-15T13:54:15.301Z,31.85
2022-12-15T13:57:04.768Z,33.08
2022-12-15T13:59:42.075Z,30.45
2022-12-15T14:02:25.702Z,34.40
2022-12-15T14:05:15.949Z,32.13
2022-12-15T14:07:54.187Z,34.38
2022-12-15T14:10:26.360Z,29.73
2022-12-15T14:15:53.453Z,32.00
2022-12-15T14:18:34.207Z,31.52
2022-12-15T14:21:07.871Z,32.70
2022-12-15T14:23:52.487Z,31.52
2022-12-15T14:26:32.199Z,35.03
2022-12-15T14:29:02.688Z,33.25
2022-12-15T14:31:31.156Z,33.08
2022-12-15T15:03:09.090Z,38.97
